Time;durP1;ratioP1;P1;durP2;ratioP2;P2;SDS_P1;SDS_P2;PMS_P1;PMS_P2;Temp;Humidity;BMP_temperature;BMP_pressure;BME280_temperature;BME280_humidity;BME280_pressure;Samples;Min_cycle;Max_cycle;Signal;HPM_P1;HPM_P2
2022/06/07 00:01:39;;;;;;;4.15;2.00;;;16.60;76.00;;;;;;5081329;28;20045;-66
2022/06/07 00:04:08;;;;;;;5.18;2.13;;;16.50;76.00;;;;;;5085462;28;20048;-68
2022/06/07 00:06:35;;;;;;;3.17;1.40;;;16.50;76.00;;;;;;5086119;28;20040;-70
2022/06/07 00:09:03;;;;;;;4.78;1.63;;;16.40;76.10;;;;;;5094085;28;20640;-70
2022/06/07 00:11:30;;;;;;;4.10;1.60;;;16.40;76.10;;;;;;5094116;28;20122;-70
2022/06/07 00:13:57;;;;;;;4.38;1.27;;;16.30;76.20;;;;;;5089176;28;20127;-69
2022/06/07 00:16:24;;;;;;;3.58;1.30;;;16.30;76.30;;;;;;5094913;28;20040;-70
2022/06/07 00:18:51;;;;;;;2.25;1.10;;;16.30;76.30;;;;;;5090207;28;20051;-67
2022/06/07 00:21:18;;;;;;;3.05;1.42;;;16.20;76.30;;;;;;5088056;28;20591;-68
2022/06/07 00:23:45;;;;;;;3.67;1.10;;;16.20;76.30;;;;;;5089104;28;20492;-69
2022/06/07 00:26:14;;;;;;;4.18;1.30;;;16.20;76.40;;;;;;5084629;28;20628;-68
2022/06/07 00:28:41;;;;;;;3.08;1.60;;;16.20;76.40;;;;;;5083263;28;20043;-67
2022/06/07 00:31:08;;;;;;;2.45;1.23;;;16.10;76.60;;;;;;5079997;28;20044;-69
2022/06/07 00:33:35;;;;;;;3.10;1.30;;;16.10;76.60;;;;;;5083639;28;20530;-69
2022/06/07 00:36:02;;;;;;;2.53;1.10;;;16.10;76.70;;;;;;5092442;28;20146;-69
2022/06/07 00:38:30;;;;;;;2.80;1.17;;;16.10;76.70;;;;;;5089411;28;20047;-69
2022/06/07 00:40:58;;;;;;;3.38;1.05;;;16.10;76.80;;;;;;5091468;28;20048;-66
2022/06/07 00:43:27;;;;;;;2.60;1.20;;;16.00;77.00;;;;;;5077047;28;20470;-69
2022/06/07 00:45:54;;;;;;;1.95;1.08;;;16.00;76.90;;;;;;5073166;28;20152;-68
2022/06/07 00:48:22;;;;;;;1.98;1.08;;;16.00;77.00;;;;;;5073087;28;20036;-67
2022/06/07 00:50:53;;;;;;;2.80;1.05;;;16.00;77.10;;;;;;5077346;28;20040;-69
2022/06/07 00:53:26;;;;;;;1.75;1.00;;;15.90;77.20;;;;;;5069596;28;20044;-68
2022/06/07 00:55:55;;;;;;;3.92;1.20;;;16.00;77.10;;;;;;5067582;28;20048;-70
2022/06/07 00:58:25;;;;;;;5.30;0.85;;;15.90;77.00;;;;;;5070863;28;20047;-68
2022/06/07 01:00:54;;;;;;;;;;;15.90;76.70;;;;;;5054116;28;20083;-70
2022/06/07 01:03:22;;;;;;;1.67;0.80;;;15.90;76.30;;;;;;5054472;28;19929;-69
2022/06/07 01:05:53;;;;;;;1.17;0.60;;;15.80;76.40;;;;;;5071164;28;20130;-69
2022/06/07 01:11:14;;;;;;;2.35;0.80;;;15.70;76.50;;;;;;5085635;28;20051;-69
2022/06/07 01:13:40;;;;;;;2.35;0.80;;;15.70;76.30;;;;;;5068225;28;20047;-70
2022/06/07 01:16:14;;;;;;;4.13;0.75;;;15.70;76.30;;;;;;5074479;28;20083;-67
2022/06/07 01:18:43;;;;;;;1.92;0.88;;;15.60;76.40;;;;;;5078889;28;20047;-69
2022/06/07 01:21:21;;;;;;;3.55;0.70;;;15.60;76.60;;;;;;5057680;28;20041;-69
2022/06/07 01:23:49;;;;;;;2.63;0.88;;;15.60;76.50;;;;;;5072926;28;20446;-67
2022/06/07 01:26:21;;;;;;;3.67;0.80;;;15.60;76.30;;;;;;5077249;28;20041;-69
2022/06/07 01:28:48;;;;;;;2.72;0.70;;;15.60;76.20;;;;;;5073717;28;20041;-69
2022/06/07 01:31:15;;;;;;;2.20;0.70;;;15.50;76.30;;;;;;5060657;28;20048;-68
2022/06/07 01:33:42;;;;;;;2.15;0.75;;;15.50;76.30;;;;;;5075591;28;20048;-69
2022/06/07 01:36:11;;;;;;;1.90;0.60;;;15.50;76.20;;;;;;5072903;28;20040;-68
2022/06/07 01:38:43;;;;;;;1.90;0.80;;;15.50;76.30;;;;;;5070906;28;20122;-68
2022/06/07 01:44:01;;;;;;;1.27;0.65;;;15.50;76.50;;;;;;5058137;28;20063;-68
2022/06/07 01:46:30;;;;;;;2.13;0.82;;;15.50;76.60;;;;;;5081918;28;20430;-69
2022/06/07 01:48:57;;;;;;;1.30;0.52;;;15.40;76.70;;;;;;5075701;28;20069;-68
2022/06/07 01:51:24;;;;;;;2.45;1.10;;;15.40;76.60;;;;;;5089588;28;20161;-69
2022/06/07 01:53:52;;;;;;;3.58;0.80;;;15.40;76.70;;;;;;5074904;28;21389;-68
2022/06/07 01:56:19;;;;;;;2.55;0.88;;;15.30;76.80;;;;;;5094725;28;20048;-66
2022/06/07 01:58:52;;;;;;;2.25;0.70;;;15.30;76.90;;;;;;5071862;28;20079;-68
2022/06/07 02:01:19;;;;;;;2.78;0.70;;;15.30;77.10;;;;;;5073646;28;20048;-70
2022/06/07 02:03:46;;;;;;;2.05;0.75;;;15.20;77.20;;;;;;5071998;28;20090;-69
2022/06/07 02:06:14;;;;;;;1.80;0.60;;;15.30;77.30;;;;;;5057211;28;20482;-69
2022/06/07 02:08:44;;;;;;;2.03;0.70;;;15.30;77.40;;;;;;5055447;28;20503;-69
2022/06/07 02:11:17;;;;;;;2.22;0.88;;;15.30;77.30;;;;;;5055178;28;20139;-69
2022/06/07 02:13:49;;;;;;;1.40;0.80;;;15.30;77.40;;;;;;5076795;28;20130;-69
2022/06/07 02:16:17;;;;;;;1.30;0.65;;;15.40;77.40;;;;;;5073110;28;20044;-67
2022/06/07 02:18:45;;;;;;;2.70;0.85;;;15.40;77.30;;;;;;5070146;28;20048;-68
2022/06/07 02:21:26;;;;;;;1.60;0.93;;;15.40;77.30;;;;;;5069375;28;20514;-69
2022/06/07 02:23:54;;;;;;;3.97;0.95;;;15.40;77.30;;;;;;5083510;28;21652;-70
2022/06/07 02:26:26;;;;;;;1.38;0.90;;;15.40;77.40;;;;;;5087841;28;20543;-69
2022/06/07 02:28:56;;;;;;;2.40;1.08;;;15.40;77.40;;;;;;5072573;28;20423;-68
2022/06/07 02:31:25;;;;;;;1.75;0.80;;;15.40;77.50;;;;;;5070713;28;20124;-68
2022/06/07 02:33:53;;;;;;;1.38;0.70;;;15.30;77.60;;;;;;5078662;28;20048;-69
2022/06/07 02:36:20;;;;;;;1.35;0.73;;;15.30;77.70;;;;;;5094972;28;20134;-68
2022/06/07 02:38:47;;;;;;;1.45;1.00;;;15.30;77.80;;;;;;5091186;28;20038;-69
2022/06/07 02:41:18;;;;;;;2.05;0.93;;;15.30;77.90;;;;;;5075787;28;20055;-69
2022/06/07 02:43:46;;;;;;;;;;;15.30;77.80;;;;;;5071200;28;20067;-69
2022/06/07 02:46:14;;;;;;;2.35;0.77;;;15.30;78.10;;;;;;5069178;28;19927;-69
2022/06/07 02:48:41;;;;;;;1.92;1.10;;;15.30;78.20;;;;;;5066948;28;20101;-69
2022/06/07 02:51:09;;;;;;;2.17;1.00;;;15.30;78.30;;;;;;5068869;28;20434;-69
2022/06/07 02:53:36;;;;;;;2.83;1.23;;;15.30;78.40;;;;;;5057307;28;20141;-69
2022/06/07 02:56:03;;;;;;;2.05;0.98;;;15.30;78.60;;;;;;5069410;28;20060;-68
2022/06/07 02:58:31;;;;;;;2.20;1.05;;;15.20;78.60;;;;;;5067215;28;20055;-69
2022/06/07 03:01:03;;;;;;;2.53;1.08;;;15.30;78.50;;;;;;5071237;28;20040;-68
2022/06/07 03:03:38;;;;;;;1.67;0.90;;;15.30;78.40;;;;;;5071783;28;20061;-69
2022/06/07 03:06:06;;;;;;;3.42;1.45;;;15.30;78.50;;;;;;5069555;28;20059;-68
2022/06/07 03:08:33;;;;;;;1.50;0.80;;;15.30;78.50;;;;;;5066151;28;20090;-68
2022/06/07 03:11:02;;;;;;;1.75;1.00;;;15.30;78.50;;;;;;5085904;28;20049;-69
2022/06/07 03:13:30;;;;;;;3.15;1.50;;;15.30;78.60;;;;;;5069347;28;20048;-70
2022/06/07 03:15:58;;;;;;;3.05;1.25;;;15.40;78.50;;;;;;5064677;28;20043;-68
2022/06/07 03:18:27;;;;;;;2.88;1.60;;;15.30;78.50;;;;;;5069389;28;20037;-69
2022/06/07 03:20:55;;;;;;;3.75;1.17;;;15.30;78.70;;;;;;5063660;28;20052;-67
2022/06/07 03:23:24;;;;;;;3.42;1.40;;;15.30;78.70;;;;;;5070898;28;20087;-67
2022/06/07 03:26:06;;;;;;;1.77;0.90;;;15.30;78.60;;;;;;5069553;28;20052;-69
2022/06/07 03:28:36;;;;;;;2.30;1.10;;;15.30;78.60;;;;;;5073390;28;20499;-70
2022/06/07 03:31:12;;;;;;;2.28;1.13;;;15.40;78.50;;;;;;5055781;28;20089;-68
2022/06/07 03:33:43;;;;;;;3.58;1.02;;;15.40;78.60;;;;;;5051608;28;20041;-69
2022/06/07 03:36:14;;;;;;;2.13;1.13;;;15.30;78.50;;;;;;5067003;28;20048;-68
2022/06/07 03:38:42;;;;;;;2.85;1.13;;;15.30;78.60;;;;;;5060416;28;21152;-78
2022/06/07 03:41:16;;;;;;;3.72;1.48;;;15.30;78.70;;;;;;5073125;28;20117;-69
2022/06/07 03:43:44;;;;;;;3.78;1.23;;;15.20;78.70;;;;;;5072050;28;20071;-68
2022/06/07 03:46:13;;;;;;;1.98;1.02;;;15.20;78.80;;;;;;5063423;28;20056;-69
2022/06/07 03:48:45;;;;;;;1.80;1.00;;;15.20;78.90;;;;;;5071851;28;20068;-69
2022/06/07 03:51:15;;;;;;;5.25;1.00;;;15.20;78.90;;;;;;5059746;28;20040;-68
2022/06/07 03:53:43;;;;;;;3.63;1.48;;;15.10;79.00;;;;;;5095394;28;20469;-68
2022/06/07 03:56:12;;;;;;;5.47;1.80;;;15.10;79.10;;;;;;5075151;28;20047;-67
2022/06/07 03:58:43;;;;;;;3.25;1.13;;;15.20;79.00;;;;;;5076951;28;20039;-68
2022/06/07 04:01:15;;;;;;;4.07;1.10;;;15.10;78.90;;;;;;5072979;28;20066;-68
2022/06/07 04:03:45;;;;;;;1.55;0.90;;;15.10;79.00;;;;;;5073858;28;20558;-69
2022/06/07 04:06:18;;;;;;;2.17;1.07;;;15.10;79.10;;;;;;5074261;28;20109;-69
2022/06/07 04:08:45;;;;;;;2.67;1.35;;;15.00;79.20;;;;;;5078182;28;20507;-69
2022/06/07 04:11:16;;;;;;;3.22;1.02;;;15.00;79.30;;;;;;5074800;28;20227;-70
2022/06/07 04:13:54;;;;;;;2.97;1.20;;;15.00;79.30;;;;;;5072301;28;20649;-68
2022/06/07 04:16:22;;;;;;;5.28;1.40;;;15.10;79.40;;;;;;5066239;28;20044;-69
2022/06/07 04:18:56;;;;;;;2.38;1.02;;;15.00;79.40;;;;;;5062440;28;20064;-67
2022/06/07 04:21:25;;;;;;;3.10;1.33;;;15.10;79.10;;;;;;5069568;28;20039;-68
2022/06/07 04:23:55;;;;;;;4.03;1.10;;;15.10;79.00;;;;;;5064942;28;20492;-69
2022/06/07 04:26:25;;;;;;;2.00;1.20;;;15.10;78.80;;;;;;5073846;28;20044;-68
2022/06/07 04:28:54;;;;;;;2.08;0.95;;;15.00;78.90;;;;;;5090265;28;20522;-69
2022/06/07 04:31:24;;;;;;;4.10;1.23;;;15.00;78.90;;;;;;5061148;28;20044;-69
2022/06/07 04:33:57;;;;;;;1.70;0.90;;;15.10;79.10;;;;;;5077115;28;20097;-69
2022/06/07 04:36:28;;;;;;;1.80;1.00;;;15.00;79.30;;;;;;5073580;28;20043;-70
2022/06/07 04:38:57;;;;;;;2.03;1.00;;;15.10;79.40;;;;;;5091294;28;20052;-68
2022/06/07 04:41:32;;;;;;;2.95;1.00;;;15.10;79.40;;;;;;5079549;28;20044;-70
2022/06/07 04:44:03;;;;;;;1.55;0.93;;;15.10;79.30;;;;;;5073094;28;20047;-69
2022/06/07 04:46:30;;;;;;;2.60;1.25;;;15.20;79.20;;;;;;5069359;28;20518;-69
2022/06/07 04:49:03;;;;;;;1.92;0.95;;;15.20;79.20;;;;;;5076237;28;20449;-69
2022/06/07 04:51:34;;;;;;;3.45;0.95;;;15.20;79.40;;;;;;5079939;28;20058;-69
2022/06/07 04:54:21;;;;;;;2.35;0.85;;;15.20;79.40;;;;;;5095337;28;20043;-69
2022/06/07 04:56:50;;;;;;;4.67;1.10;;;15.30;79.40;;;;;;5070536;28;20039;-67
2022/06/07 04:59:17;;;;;;;4.53;1.05;;;15.30;79.50;;;;;;5094802;28;20202;-67
2022/06/07 05:01:53;;;;;;;6.47;0.95;;;15.30;79.50;;;;;;5077999;28;20445;-68
2022/06/07 05:04:29;;;;;;;2.42;1.02;;;15.40;79.40;;;;;;5097723;28;20082;-69
2022/06/07 05:06:59;;;;;;;3.33;1.27;;;15.40;79.30;;;;;;5089576;28;20056;-67
2022/06/07 05:09:49;;;;;;;;;;;15.50;79.10;;;;;;5080643;28;20053;-69
2022/06/07 05:12:24;;;;;;;4.20;1.05;;;15.50;79.20;;;;;;5072906;28;19996;-69
2022/06/07 05:14:53;;;;;;;3.13;1.27;;;15.50;79.10;;;;;;5082943;28;20441;-68
2022/06/07 05:17:28;;;;;;;1.50;0.95;;;15.50;79.20;;;;;;5074825;28;20514;-68
2022/06/07 05:20:02;;;;;;;3.67;1.15;;;15.50;79.10;;;;;;5073791;28;20178;-68
2022/06/07 05:22:32;;;;;;;3.53;1.02;;;15.50;79.10;;;;;;5090367;28;20527;-67
2022/06/07 05:25:02;;;;;;;3.47;1.02;;;15.60;79.10;;;;;;5088730;28;20046;-67
2022/06/07 05:27:42;;;;;;;3.33;1.35;;;15.60;79.00;;;;;;5071615;28;20054;-69
2022/06/07 05:30:16;;;;;;;1.95;1.10;;;15.60;78.80;;;;;;5087381;28;20028;-69
2022/06/07 05:32:53;;;;;;;2.47;1.00;;;15.70;78.80;;;;;;5086925;28;22624;-69
2022/06/07 05:35:32;;;;;;;2.70;0.90;;;15.70;78.60;;;;;;5067654;28;20138;-68
2022/06/07 05:38:05;;;;;;;1.77;0.90;;;15.70;78.60;;;;;;5067533;28;20125;-69
2022/06/07 05:40:35;;;;;;;1.70;1.02;;;15.80;78.60;;;;;;5073192;28;20048;-67
2022/06/07 05:43:05;;;;;;;7.90;1.60;;;15.90;78.50;;;;;;5057729;28;20531;-68
2022/06/07 05:45:37;;;;;;;2.58;1.35;;;15.90;78.50;;;;;;5063091;28;20049;-67
2022/06/07 05:48:11;;;;;;;2.55;1.30;;;15.90;78.50;;;;;;5067980;28;20044;-68
2022/06/07 05:50:50;;;;;;;3.50;1.48;;;15.90;78.40;;;;;;5064154;28;20216;-67
2022/06/07 05:53:20;;;;;;;2.78;1.33;;;15.90;78.40;;;;;;5065537;28;20044;-69
2022/06/07 05:55:47;;;;;;;5.05;1.65;;;15.90;78.30;;;;;;5057712;28;20048;-69
2022/06/07 05:58:15;;;;;;;5.05;1.70;;;15.90;78.20;;;;;;5073966;28;20056;-68
2022/06/07 06:00:42;;;;;;;5.57;2.17;;;15.90;78.20;;;;;;5056315;28;20983;-68
2022/06/07 06:03:11;;;;;;;4.60;1.40;;;16.00;78.10;;;;;;5074213;28;20467;-66
2022/06/07 06:05:45;;;;;;;5.10;1.65;;;16.00;77.90;;;;;;5075686;28;20043;-69
2022/06/07 06:11:07;;;;;;;3.97;1.67;;;16.10;77.90;;;;;;5091525;28;20040;-67
2022/06/07 06:13:36;;;;;;;6.25;1.52;;;16.10;77.90;;;;;;5079750;28;20503;-67
2022/06/07 06:16:07;;;;;;;5.03;2.07;;;16.10;77.90;;;;;;5080402;28;20044;-68
2022/06/07 06:18:39;;;;;;;5.00;1.98;;;16.10;77.90;;;;;;5079654;28;20403;-68
2022/06/07 06:21:06;;;;;;;3.80;1.63;;;16.20;78.00;;;;;;5077565;28;20040;-69
2022/06/07 06:23:35;;;;;;;4.38;1.58;;;16.30;77.90;;;;;;5079108;28;20049;-68
2022/06/07 06:26:02;;;;;;;4.38;1.50;;;16.40;77.80;;;;;;5079018;28;20040;-67
2022/06/07 06:28:29;;;;;;;4.90;1.25;;;16.40;77.60;;;;;;5078319;28;20098;-67
2022/06/07 06:31:05;;;;;;;3.38;1.63;;;16.40;77.50;;;;;;5078134;28;20044;-67
2022/06/07 06:33:33;;;;;;;4.18;1.50;;;16.50;77.40;;;;;;5078197;28;20406;-70
2022/06/07 06:35:59;;;;;;;2.70;1.20;;;16.50;77.50;;;;;;5078460;28;20123;-68
2022/06/07 06:38:36;;;;;;;4.35;1.20;;;16.60;77.20;;;;;;5079585;28;20467;-67
2022/06/07 06:41:08;;;;;;;2.67;1.30;;;16.70;77.00;;;;;;5074686;28;20059;-67
2022/06/07 06:43:36;;;;;;;4.05;1.05;;;16.80;76.80;;;;;;5079579;28;20076;-69
2022/06/07 06:46:30;;;;;;;4.15;0.95;;;16.90;76.60;;;;;;5075849;28;20396;-69
2022/06/07 06:48:58;;;;;;;3.10;1.00;;;17.10;76.30;;;;;;5058485;28;20087;-68
2022/06/07 06:51:28;;;;;;;1.60;0.93;;;17.20;76.00;;;;;;5077883;28;20081;-67
2022/06/07 06:53:58;;;;;;;2.00;0.80;;;17.40;75.80;;;;;;5077068;28;20149;-69
2022/06/07 06:56:32;;;;;;;2.15;1.10;;;17.50;75.50;;;;;;5080254;28;20056;-67
2022/06/07 06:59:05;;;;;;;1.65;1.00;;;17.70;74.80;;;;;;5092696;28;20562;-68
2022/06/07 07:01:35;;;;;;;2.78;1.30;;;17.80;74.20;;;;;;5071599;28;20045;-67
2022/06/07 07:04:07;;;;;;;3.08;1.00;;;18.00;73.90;;;;;;5075912;28;20036;-67
2022/06/07 07:06:36;;;;;;;1.77;1.00;;;18.10;73.80;;;;;;5056086;28;20059;-68
2022/06/07 07:09:06;;;;;;;1.48;0.60;;;18.30;74.60;;;;;;5074654;28;20062;-67
2022/06/07 07:11:37;;;;;;;1.88;0.65;;;18.70;73.30;;;;;;5077967;28;20044;-69
2022/06/07 07:14:09;;;;;;;3.45;1.00;;;19.10;71.80;;;;;;5069815;28;20045;-68
2022/06/07 07:16:44;;;;;;;0.98;0.70;;;19.40;70.80;;;;;;5068503;28;20048;-69
2022/06/07 07:19:13;;;;;;;1.15;0.50;;;19.60;69.90;;;;;;5069510;28;20040;-69
2022/06/07 07:21:43;;;;;;;1.60;0.73;;;20.10;67.90;;;;;;5069252;28;20143;-68
2022/06/07 07:24:16;;;;;;;1.48;0.73;;;20.40;66.70;;;;;;5069833;28;20098;-68
2022/06/07 07:26:48;;;;;;;1.58;0.60;;;20.60;65.40;;;;;;5074633;28;20048;-68
2022/06/07 07:29:20;;;;;;;2.17;0.55;;;20.50;64.80;;;;;;5074887;28;20059;-67
2022/06/07 07:31:49;;;;;;;2.03;0.50;;;20.60;64.90;;;;;;5063412;28;20048;-67
2022/06/07 07:34:21;;;;;;;2.58;0.60;;;20.80;64.00;;;;;;5067508;28;20080;-69
2022/06/07 07:36:51;;;;;;;1.85;0.60;;;21.00;63.30;;;;;;5068337;28;20048;-67
2022/06/07 07:39:21;;;;;;;;;;;21.10;63.00;;;;;;5066368;28;20052;-68
2022/06/07 07:41:51;;;;;;;2.13;0.50;;;21.20;62.40;;;;;;5063928;28;20054;-69
2022/06/07 07:44:18;;;;;;;0.35;0.30;;;21.30;61.80;;;;;;5073184;28;20051;-70
2022/06/07 07:46:51;;;;;;;1.40;0.60;;;21.40;61.30;;;;;;5067086;28;20419;-70
2022/06/07 07:49:20;;;;;;;3.13;0.70;;;21.50;61.10;;;;;;5068875;28;20206;-70
2022/06/07 07:51:50;;;;;;;1.15;0.50;;;21.70;60.30;;;;;;5071956;28;20560;-69
2022/06/07 07:54:22;;;;;;;1.50;0.65;;;21.70;59.90;;;;;;5081703;28;20583;-69
2022/06/07 07:56:50;;;;;;;3.58;0.50;;;21.70;59.80;;;;;;5079378;28;20052;-67
2022/06/07 07:59:20;;;;;;;1.77;0.45;;;21.80;59.50;;;;;;5077080;28;20462;-70
2022/06/07 08:01:51;;;;;;;1.10;0.40;;;21.90;59.10;;;;;;5071797;28;20040;-68
2022/06/07 08:04:18;;;;;;;1.35;0.57;;;22.00;58.90;;;;;;5069199;28;20079;-68
2022/06/07 08:06:49;;;;;;;3.50;0.50;;;22.10;58.70;;;;;;5084881;28;20700;-68
2022/06/07 08:09:16;;;;;;;1.63;0.77;;;22.10;58.30;;;;;;5088104;28;20560;-69
2022/06/07 08:11:48;;;;;;;1.80;0.60;;;22.10;58.00;;;;;;5088526;28;20046;-67
2022/06/07 08:14:18;;;;;;;1.88;0.40;;;22.20;57.70;;;;;;5088929;28;20132;-68
2022/06/07 08:16:46;;;;;;;0.88;0.47;;;22.30;57.30;;;;;;5086296;28;20499;-68
2022/06/07 08:19:13;;;;;;;0.82;0.50;;;22.30;56.90;;;;;;5088728;28;20047;-69
2022/06/07 08:21:41;;;;;;;1.92;0.60;;;22.40;56.40;;;;;;5074064;28;20089;-69
2022/06/07 08:24:08;;;;;;;0.77;0.45;;;22.40;55.90;;;;;;5098633;28;20507;-71
2022/06/07 08:26:35;;;;;;;2.17;0.40;;;22.50;56.30;;;;;;5088172;28;20054;-69
2022/06/07 08:29:04;;;;;;;0.65;0.40;;;22.60;55.40;;;;;;5091411;28;20044;-68
2022/06/07 08:31:32;;;;;;;0.75;0.47;;;22.70;55.20;;;;;;5090247;28;20037;-69
2022/06/07 08:39:32;;;;;;;1.58;0.52;;;22.80;54.60;;;;;;5088239;28;20046;-67
2022/06/07 08:42:01;;;;;;;2.42;0.70;;;22.70;54.20;;;;;;5085217;28;20626;-69
2022/06/07 08:44:37;;;;;;;0.68;0.30;;;22.60;54.30;;;;;;5083038;28;20048;-69
2022/06/07 08:47:14;;;;;;;0.95;0.45;;;22.60;54.10;;;;;;5084295;28;20070;-69
2022/06/07 08:49:41;;;;;;;1.95;0.77;;;22.50;53.90;;;;;;5086189;28;20581;-70
2022/06/07 08:52:13;;;;;;;1.75;0.30;;;22.40;54.00;;;;;;5086193;28;20032;-69
2022/06/07 08:54:42;;;;;;;0.65;0.45;;;22.30;54.00;;;;;;5084599;28;20155;-69
2022/06/07 08:57:22;;;;;;;2.05;0.57;;;22.20;53.90;;;;;;5086475;28;20048;-69
2022/06/07 08:59:54;;;;;;;1.30;0.50;;;22.10;54.00;;;;;;5085705;28;20048;-69
2022/06/07 09:02:45;;;;;;;4.28;0.50;;;22.10;54.70;;;;;;5082379;28;20044;-67
2022/06/07 09:05:14;;;;;;;1.55;0.40;;;22.20;54.50;;;;;;5083712;28;20054;-68
2022/06/07 09:07:41;;;;;;;2.03;0.40;;;22.30;54.30;;;;;;5077602;28;20048;-70
2022/06/07 09:13:00;;;;;;;3.63;1.17;;;22.50;53.80;;;;;;5085966;28;20028;-68
2022/06/07 09:15:30;;;;;;;5.38;2.13;;;22.60;53.20;;;;;;5085359;28;20040;-68
2022/06/07 09:17:59;;;;;;;5.50;2.50;;;22.70;53.00;;;;;;5089104;28;20047;-68
2022/06/07 09:20:29;;;;;;;5.22;2.33;;;22.80;52.90;;;;;;5091756;28;20111;-69
2022/06/07 09:22:59;;;;;;;4.65;2.15;;;22.80;52.50;;;;;;5091400;28;20040;-68
2022/06/07 09:25:29;;;;;;;8.10;1.63;;;22.70;52.00;;;;;;5089638;28;20496;-69
2022/06/07 09:27:58;;;;;;;4.68;2.10;;;22.70;51.90;;;;;;5088165;28;20509;-69
2022/06/07 09:30:29;;;;;;;4.82;1.92;;;22.70;51.80;;;;;;5091669;28;20054;-68
2022/06/07 09:32:56;;;;;;;5.28;1.33;;;22.80;51.80;;;;;;5097607;28;20032;-69
2022/06/07 09:35:34;;;;;;;4.57;1.30;;;22.90;51.50;;;;;;5097993;28;20400;-68
2022/06/07 09:38:05;;;;;;;2.75;1.20;;;23.00;50.90;;;;;;5094190;28;20440;-69
2022/06/07 09:40:35;;;;;;;8.10;1.10;;;23.00;50.40;;;;;;5096335;28;20526;-69
2022/06/07 09:43:03;;;;;;;;;;;23.10;49.80;;;;;;5092088;28;20044;-68
2022/06/07 09:45:37;;;;;;;0.85;0.45;;;23.10;49.60;;;;;;5089018;28;19923;-69
2022/06/07 09:48:26;;;;;;;1.40;0.50;;;23.10;48.80;;;;;;5089029;28;20137;-68
2022/06/07 09:50:58;;;;;;;0.82;0.43;;;23.00;49.10;;;;;;5092904;28;20056;-67
2022/06/07 09:53:26;;;;;;;4.40;1.58;;;23.00;49.00;;;;;;5101980;28;20422;-70
2022/06/07 09:56:04;;;;;;;4.15;2.05;;;23.00;48.70;;;;;;5089736;28;20032;-69
2022/06/07 09:58:43;;;;;;;5.15;1.70;;;22.90;48.50;;;;;;5087961;28;20412;-69
2022/06/07 10:01:19;;;;;;;5.22;2.60;;;22.90;48.80;;;;;;5090686;28;20032;-70
2022/06/07 10:03:52;;;;;;;2.38;0.85;;;23.00;48.90;;;;;;5094671;28;20070;-70
2022/06/07 10:06:29;;;;;;;1.83;0.80;;;23.10;48.80;;;;;;5092061;28;20384;-70
2022/06/07 10:09:31;;;;;;;1.83;0.70;;;23.20;48.70;;;;;;5096346;28;20051;-68
2022/06/07 10:12:14;;;;;;;1.85;0.50;;;23.30;48.00;;;;;;5073492;28;20044;-69
2022/06/07 10:14:47;;;;;;;3.17;0.80;;;23.40;47.60;;;;;;5088675;28;20039;-69
2022/06/07 10:17:43;;;;;;;1.80;0.50;;;23.30;47.60;;;;;;5090618;28;20039;-69
2022/06/07 10:20:22;;;;;;;1.10;0.40;;;23.20;46.80;;;;;;5088120;28;20056;-70
2022/06/07 10:23:20;;;;;;;2.28;0.38;;;23.20;47.00;;;;;;5088404;28;20047;-70
2022/06/07 10:25:58;;;;;;;1.17;0.40;;;23.30;47.10;;;;;;5085857;28;20093;-70
2022/06/07 10:28:34;;;;;;;1.25;0.35;;;23.40;47.10;;;;;;5088482;28;20040;-68
2022/06/07 10:31:07;;;;;;;1.17;0.30;;;23.50;47.00;;;;;;5090297;28;20104;-68
2022/06/07 10:33:50;;;;;;;0.57;0.30;;;23.60;46.30;;;;;;5086587;28;20123;-68
2022/06/07 10:36:41;;;;;;;3.40;0.77;;;23.70;46.70;;;;;;5087623;28;20492;-68
2022/06/07 10:39:21;;;;;;;1.13;0.47;;;23.80;46.70;;;;;;5085582;28;20052;-69
2022/06/07 10:42:01;;;;;;;0.80;0.30;;;23.80;45.60;;;;;;5089612;28;20039;-68
2022/06/07 10:44:33;;;;;;;0.60;0.30;;;23.80;45.70;;;;;;5087029;28;20051;-70
2022/06/07 10:47:18;;;;;;;0.90;0.38;;;23.80;45.60;;;;;;5086176;28;20051;-68
2022/06/07 10:49:53;;;;;;;0.80;0.30;;;23.80;45.50;;;;;;5089010;28;20415;-69
2022/06/07 10:52:34;;;;;;;13.52;0.88;;;23.80;44.50;;;;;;5085677;28;20119;-68
2022/06/07 10:55:13;;;;;;;0.60;0.30;;;23.80;44.10;;;;;;5085610;28;20124;-67
2022/06/07 10:57:47;;;;;;;1.25;0.50;;;23.60;44.30;;;;;;5088218;28;20101;-69
2022/06/07 11:00:24;;;;;;;1.38;0.30;;;23.60;44.20;;;;;;5082164;28;20050;-70
2022/06/07 11:03:00;;;;;;;0.60;0.28;;;23.70;44.70;;;;;;5083261;28;20036;-69
2022/06/07 11:11:12;;;;;;;0.75;0.40;;;23.60;44.90;;;;;;5086359;28;20032;-69
2022/06/07 11:13:48;;;;;;;0.98;0.38;;;23.60;44.70;;;;;;5093727;28;20050;-70
2022/06/07 11:16:21;;;;;;;2.42;0.30;;;23.60;44.40;;;;;;5091802;28;20035;-70
2022/06/07 11:18:49;;;;;;;0.82;0.30;;;23.70;44.70;;;;;;5088567;28;20035;-69
2022/06/07 11:21:31;;;;;;;1.00;0.30;;;23.70;44.40;;;;;;5091660;28;20050;-69
2022/06/07 11:24:06;;;;;;;1.05;0.40;;;23.70;44.40;;;;;;5056677;28;20456;-68
2022/06/07 11:27:04;;;;;;;0.28;0.13;;;23.70;44.20;;;;;;5086708;28;20078;-68
2022/06/07 11:29:34;;;;;;;1.15;0.25;;;23.80;44.60;;;;;;5082158;28;20090;-69
2022/06/07 11:32:03;;;;;;;0.47;0.30;;;23.90;44.70;;;;;;5088052;28;20040;-68
2022/06/07 11:34:33;;;;;;;0.40;0.28;;;23.90;44.50;;;;;;5083671;28;20071;-67
2022/06/07 11:37:26;;;;;;;1.23;0.40;;;23.90;44.40;;;;;;5089261;28;20510;-69
2022/06/07 11:39:56;;;;;;;0.47;0.30;;;23.90;44.10;;;;;;5089525;28;20036;-68
2022/06/07 11:42:33;;;;;;;1.23;0.38;;;24.00;43.70;;;;;;5090588;28;20063;-69
2022/06/07 11:45:25;;;;;;;1.13;0.50;;;24.00;43.30;;;;;;5086050;28;20520;-68
2022/06/07 11:48:13;;;;;;;0.82;0.38;;;24.10;42.90;;;;;;5089751;28;20790;-68
2022/06/07 11:50:48;;;;;;;0.70;0.30;;;24.10;43.30;;;;;;5099089;28;20043;-70
2022/06/07 11:53:29;;;;;;;0.68;0.30;;;24.00;43.60;;;;;;5095895;28;20047;-69
2022/06/07 11:56:18;;;;;;;0.68;0.25;;;23.90;43.60;;;;;;5086935;28;20032;-67
2022/06/07 11:58:58;;;;;;;0.73;0.30;;;23.90;43.90;;;;;;5091104;28;20114;-70
2022/06/07 12:01:41;;;;;;;0.65;0.43;;;23.90;43.90;;;;;;5082688;28;20063;-71
2022/06/07 12:04:32;;;;;;;2.25;0.60;;;23.80;43.90;;;;;;5079322;28;20067;-69
2022/06/07 12:07:05;;;;;;;1.67;0.43;;;23.80;43.90;;;;;;5089024;28;20039;-70
2022/06/07 12:09:36;;;;;;;0.80;0.40;;;23.80;44.00;;;;;;5085462;28;20035;-68
2022/06/07 12:12:20;;;;;;;1.17;0.50;;;23.80;44.00;;;;;;5086470;28;20069;-68
2022/06/07 12:14:52;;;;;;;2.33;0.80;;;23.80;44.10;;;;;;5086723;28;20561;-69
2022/06/07 12:17:25;;;;;;;1.15;0.50;;;23.80;44.10;;;;;;5087862;28;20424;-69
2022/06/07 12:19:53;;;;;;;3.60;0.90;;;23.80;44.30;;;;;;5086127;28;20540;-70
2022/06/07 12:22:23;;;;;;;1.27;0.60;;;23.90;44.20;;;;;;5086065;28;21733;-69
2022/06/07 12:24:57;;;;;;;5.43;0.65;;;23.90;44.20;;;;;;5083715;28;20824;-70
2022/06/07 12:27:27;;;;;;;2.35;0.90;;;23.90;44.30;;;;;;5088104;28;20495;-68
2022/06/07 12:30:00;;;;;;;2.45;0.73;;;23.90;44.30;;;;;;5088054;28;20046;-70
2022/06/07 12:32:33;;;;;;;1.85;0.45;;;24.00;44.00;;;;;;5086788;28;20038;-70
2022/06/07 12:35:19;;;;;;;0.70;0.40;;;24.00;44.00;;;;;;5089199;28;20114;-70
2022/06/07 12:37:49;;;;;;;3.42;0.40;;;24.00;44.10;;;;;;5086297;28;20398;-69
2022/06/07 12:40:28;;;;;;;3.00;0.57;;;24.00;44.20;;;;;;5085160;28;20047;-68
2022/06/07 12:42:56;;;;;;;;;;;24.00;44.10;;;;;;5084519;28;20094;-68
2022/06/07 12:45:25;;;;;;;1.55;0.60;;;24.00;44.20;;;;;;5086475;28;20361;-71
2022/06/07 12:47:58;;;;;;;0.60;0.40;;;23.90;44.30;;;;;;5087020;28;20424;-68
2022/06/07 12:50:30;;;;;;;0.55;0.32;;;23.90;44.50;;;;;;5093778;28;20083;-69
2022/06/07 12:52:58;;;;;;;1.23;0.50;;;24.00;44.60;;;;;;5091066;28;20487;-67
2022/06/07 12:55:28;;;;;;;1.40;0.40;;;24.00;44.70;;;;;;5089512;28;20098;-68
2022/06/07 12:57:58;;;;;;;1.10;0.30;;;24.00;44.70;;;;;;5093576;28;20729;-68
2022/06/07 13:00:28;;;;;;;1.10;0.50;;;24.00;44.80;;;;;;5090107;28;20101;-68
2022/06/07 13:02:58;;;;;;;1.08;0.32;;;24.00;44.90;;;;;;5091997;28;20119;-67
2022/06/07 13:05:29;;;;;;;0.70;0.30;;;24.00;44.60;;;;;;5088533;28;20494;-68
2022/06/07 13:08:00;;;;;;;0.90;0.22;;;24.00;44.60;;;;;;5091858;28;20076;-68
2022/06/07 13:10:30;;;;;;;1.63;0.40;;;23.90;44.80;;;;;;5088786;28;20050;-68
2022/06/07 13:13:00;;;;;;;0.57;0.30;;;23.90;45.00;;;;;;5089987;28;20067;-68
2022/06/07 13:15:30;;;;;;;1.27;0.60;;;23.90;44.90;;;;;;5089630;28;20123;-69
2022/06/07 13:18:00;;;;;;;0.77;0.32;;;23.90;44.90;;;;;;5092748;28;20123;-70
2022/06/07 13:20:32;;;;;;;0.95;0.30;;;23.90;45.00;;;;;;5093065;28;20044;-69
2022/06/07 13:22:59;;;;;;;3.67;0.45;;;24.00;45.10;;;;;;5094718;28;20045;-69
2022/06/07 13:25:31;;;;;;;1.38;0.40;;;24.10;45.00;;;;;;5085383;28;20048;-69
2022/06/07 13:28:05;;;;;;;0.20;0.20;;;24.10;44.90;;;;;;5087490;28;20484;-69
2022/06/07 13:30:41;;;;;;;0.43;0.30;;;24.10;45.00;;;;;;5056693;28;20055;-69
2022/06/07 13:33:31;;;;;;;0.88;0.40;;;24.00;44.80;;;;;;5094547;28;20488;-70
2022/06/07 13:36:02;;;;;;;0.68;0.30;;;24.00;44.90;;;;;;5092661;28;20040;-70